Forside
METAR-TAF:

METAR-TAF

Lufthavne :

Minden, Nevada, USA

Breddekreds: 39-00-03N, længdekreds: 119-45-07W, højde: 1439 m

Aktuelle vejr

Denne rapport blev lavet for 21 minutter siden, kl. 08:15 UTC
Vind stille
Temperatur 0°C
Fugtighed 51%
Tryk 1019 hPa
Sigt: 16.1 km
Overskyet i en højde af 7500 ft

METAR: KMEV 220815Z AUTO 00000KT 10SM OVC075 00/M09 A3010 RMK AO2

Tid: 00:36 (08:36 UTC)

Vejrudsigter

Denne rapport blev lavet for 3 timer og 8 minutter siden, kl. 05:28 UTC
Foreløbig gælder fra 22 på 06 UTC til 23 på 06 UTC
Vind 3 kt fra varierende retninger
Sigt: 10 km
Spredte skyer i en højde af 6000 ft
Brudte skyer i en højde af 10000 ft
Fra 22 på 2100 UTC
Vind 13 kt fra nordnordvest
Sigt: 10 km
Spredte skyer i en højde af 7000 ft
Fra 23 på 0300 UTC
Vind 3 kt fra varierende retninger
Sigt: 10 km
Spredte skyer i en højde af 20000 ft

TAF: KMEV 220528Z 2206/2306 VRB03KT P6SM SCT060 BKN100 FM222100 34013KT P6SM SCT070 FM230300 VRB03KT P6SM SCT200

Vejrobservationer og prognoser fra mere end 4000 lufthavne (METAR og TAF).

De gule og røde prikker repræsenterer de meteorologiske stationer.

Flyt musen over at se navnet på stationen.

Så klik over at se vejr observationer og prognoser.

At skifte det kort: Klik på de grønne knapper med et sort kors for at zoome ind; på den grønne knap med en bindestreg for at zoome ud; eller på de grønne pile for tilstødende kort.


METAR-TAF: